createdAt,value
2022-07-28T00:07:53.855Z,98200
2022-07-28T00:19:53.505Z,98190
2022-07-28T00:31:53.518Z,98180
2022-07-28T00:43:53.547Z,98180
2022-07-28T00:56:05.939Z,98170
2022-07-28T01:07:53.710Z,98160
2022-07-28T01:19:54.022Z,98170
2022-07-28T01:31:54.091Z,98160
2022-07-28T01:43:53.871Z,98150
2022-07-28T01:55:53.707Z,98140
2022-07-28T02:07:53.491Z,98140
2022-07-28T02:19:53.496Z,98130
2022-07-28T02:31:53.622Z,98120
2022-07-28T02:43:53.802Z,98110
2022-07-28T02:55:53.816Z,98100
2022-07-28T03:07:53.748Z,98090
2022-07-28T03:19:53.461Z,98100
2022-07-28T03:31:54.181Z,98100
2022-07-28T03:43:53.787Z,98100
2022-07-28T03:55:54.186Z,98100
2022-07-28T04:07:53.806Z,98100
2022-07-28T04:19:53.907Z,98100
2022-07-28T04:31:53.864Z,98090
2022-07-28T04:43:53.713Z,98080
2022-07-28T04:55:54.832Z,98070
2022-07-28T05:07:53.986Z,98070
2022-07-28T05:19:53.927Z,98070
2022-07-28T05:31:53.977Z,98080
2022-07-28T05:43:53.741Z,98070
2022-07-28T05:55:59.842Z,98070
2022-07-28T06:07:53.885Z,98070
2022-07-28T06:19:53.810Z,98070
2022-07-28T06:31:53.954Z,98060
2022-07-28T06:43:53.773Z,98060
2022-07-28T06:55:54.013Z,98080
2022-07-28T07:07:54.602Z,98070
2022-07-28T07:19:54.069Z,98060
2022-07-28T07:31:54.495Z,98050
2022-07-28T07:43:54.068Z,98050
2022-07-28T07:55:53.511Z,98040
2022-07-28T08:07:53.855Z,98030
2022-07-28T08:19:54.082Z,98030
2022-07-28T08:31:54.107Z,98030
2022-07-28T08:43:53.802Z,98010
2022-07-28T08:55:54.569Z,98010
2022-07-28T09:07:54.905Z,98020
2022-07-28T09:19:54.033Z,98010
2022-07-28T09:31:55.800Z,98000
2022-07-28T09:43:55.177Z,97990
2022-07-28T09:55:53.754Z,97990
2022-07-28T10:07:53.727Z,97980
2022-07-28T10:19:53.672Z,97970
2022-07-28T10:31:54.120Z,97950
2022-07-28T10:43:53.734Z,97950
2022-07-28T10:55:53.633Z,97950
2022-07-28T11:07:53.798Z,97930
2022-07-28T11:31:53.502Z,97920
2022-07-28T11:43:53.845Z,97910
2022-07-28T11:56:02.976Z,97910
2022-07-28T12:07:53.743Z,97890
2022-07-28T12:19:53.848Z,97910
2022-07-28T12:31:53.858Z,97910
2022-07-28T12:43:53.668Z,97880
2022-07-28T12:55:53.678Z,97880
2022-07-28T13:07:53.779Z,97850
2022-07-28T13:19:53.512Z,97860
2022-07-28T13:31:53.612Z,97840
2022-07-28T13:43:53.726Z,97850
2022-07-28T13:55:53.587Z,97850
2022-07-28T14:07:53.725Z,97840
2022-07-28T14:19:53.691Z,97830
2022-07-28T14:31:53.597Z,97820
2022-07-28T14:43:53.469Z,97820
2022-07-28T14:55:53.935Z,97810
2022-07-28T15:07:53.680Z,97810
2022-07-28T15:19:53.770Z,97820
2022-07-28T15:31:53.746Z,97820
2022-07-28T15:43:53.704Z,97810
2022-07-28T15:55:53.615Z,97810
2022-07-28T16:07:53.577Z,97800
2022-07-28T16:19:53.836Z,97790
2022-07-28T16:31:53.504Z,97790
2022-07-28T16:43:53.589Z,97780
2022-07-28T16:55:53.481Z,97780
2022-07-28T17:07:53.473Z,97770
2022-07-28T17:19:53.553Z,97780
2022-07-28T17:31:53.926Z,97770
2022-07-28T17:43:53.769Z,97780
2022-07-28T17:56:00.508Z,97770
2022-07-28T18:07:57.406Z,97770
2022-07-28T18:19:53.520Z,97780
2022-07-28T18:31:53.672Z,97790
2022-07-28T18:43:53.463Z,97790
2022-07-28T18:55:53.507Z,97790
2022-07-28T19:07:53.495Z,97800
2022-07-28T19:19:53.688Z,97800
2022-07-28T19:31:53.822Z,97820
2022-07-28T19:43:53.529Z,97820
2022-07-28T19:55:53.702Z,97830
2022-07-28T20:07:53.427Z,97840
2022-07-28T20:19:53.481Z,97860
2022-07-28T20:31:54.088Z,97870
2022-07-28T20:44:18.219Z,97880
2022-07-28T20:55:53.453Z,97890
2022-07-28T21:08:00.642Z,97890
2022-07-28T21:19:53.580Z,97900
2022-07-28T21:32:02.341Z,97890
2022-07-28T21:43:53.444Z,97900
2022-07-28T21:55:53.638Z,97890
2022-07-28T22:07:53.585Z,97900
2022-07-28T22:19:53.562Z,97910
2022-07-28T22:31:58.871Z,97900
2022-07-28T22:43:53.537Z,97890
2022-07-28T22:55:53.519Z,97890
2022-07-28T23:07:57.234Z,97890
2022-07-28T23:19:53.516Z,97890
2022-07-28T23:31:53.566Z,97880
2022-07-28T23:43:53.902Z,97870
2022-07-28T23:55:53.473Z,97860
